sensor_id;sensor_type;location;lat;lon;timestamp;P1;durP1;ratioP1;P2;durP2;ratioP2
72801;SDS011;61891;55.818;37.084;2022-07-25T00:03:18;10.50;;;7.15;;
72801;SDS011;61891;55.818;37.084;2022-07-25T00:05:43;10.05;;;7.00;;
72801;SDS011;61891;55.818;37.084;2022-07-25T00:08:09;11.00;;;6.90;;
72801;SDS011;61891;55.818;37.084;2022-07-25T00:10:35;11.23;;;7.05;;
72801;SDS011;61891;55.818;37.084;2022-07-25T00:13:01;9.75;;;7.40;;
72801;SDS011;61891;55.818;37.084;2022-07-25T00:15:27;9.90;;;7.20;;
72801;SDS011;61891;55.818;37.084;2022-07-25T00:17:53;9.13;;;6.82;;
72801;SDS011;61891;55.818;37.084;2022-07-25T00:22:45;8.95;;;7.13;;
72801;SDS011;61891;55.818;37.084;2022-07-25T00:27:36;9.38;;;6.93;;
72801;SDS011;61891;55.818;37.084;2022-07-25T00:30:03;8.90;;;7.45;;
72801;SDS011;61891;55.818;37.084;2022-07-25T00:32:29;8.82;;;7.20;;
72801;SDS011;61891;55.818;37.084;2022-07-25T00:37:20;10.20;;;7.75;;
72801;SDS011;61891;55.818;37.084;2022-07-25T00:42:12;8.55;;;7.22;;
72801;SDS011;61891;55.818;37.084;2022-07-25T00:44:38;10.02;;;7.20;;
72801;SDS011;61891;55.818;37.084;2022-07-25T00:49:29;9.85;;;7.20;;
72801;SDS011;61891;55.818;37.084;2022-07-25T00:54:21;10.88;;;8.13;;
72801;SDS011;61891;55.818;37.084;2022-07-25T00:59:13;15.30;;;8.70;;
72801;SDS011;61891;55.818;37.084;2022-07-25T01:01:39;19.38;;;9.85;;
72801;SDS011;61891;55.818;37.084;2022-07-25T01:04:06;21.00;;;12.02;;
72801;SDS011;61891;55.818;37.084;2022-07-25T01:06:33;66.22;;;25.17;;
72801;SDS011;61891;55.818;37.084;2022-07-25T01:08:59;16.50;;;9.70;;
72801;SDS011;61891;55.818;37.084;2022-07-25T01:11:26;12.30;;;7.75;;
72801;SDS011;61891;55.818;37.084;2022-07-25T01:13:52;13.13;;;8.63;;
72801;SDS011;61891;55.818;37.084;2022-07-25T01:16:17;11.38;;;7.70;;
72801;SDS011;61891;55.818;37.084;2022-07-25T01:21:09;10.57;;;7.97;;
72801;SDS011;61891;55.818;37.084;2022-07-25T01:23:35;15.13;;;7.47;;
72801;SDS011;61891;55.818;37.084;2022-07-25T01:26:01;9.98;;;7.40;;
72801;SDS011;61891;55.818;37.084;2022-07-25T01:28:28;11.13;;;7.65;;
72801;SDS011;61891;55.818;37.084;2022-07-25T01:30:54;9.65;;;7.20;;
72801;SDS011;61891;55.818;37.084;2022-07-25T01:33:20;10.90;;;7.45;;
72801;SDS011;61891;55.818;37.084;2022-07-25T01:35:47;7.60;;;6.80;;
72801;SDS011;61891;55.818;37.084;2022-07-25T01:38:14;11.60;;;7.15;;
72801;SDS011;61891;55.818;37.084;2022-07-25T01:40:40;9.90;;;7.05;;
72801;SDS011;61891;55.818;37.084;2022-07-25T01:43:07;9.45;;;6.88;;
72801;SDS011;61891;55.818;37.084;2022-07-25T01:45:32;9.60;;;7.35;;
72801;SDS011;61891;55.818;37.084;2022-07-25T01:47:59;8.15;;;7.03;;
72801;SDS011;61891;55.818;37.084;2022-07-25T01:50:25;10.75;;;7.32;;
72801;SDS011;61891;55.818;37.084;2022-07-25T01:52:51;10.43;;;7.25;;
72801;SDS011;61891;55.818;37.084;2022-07-25T01:55:16;11.93;;;7.90;;
72801;SDS011;61891;55.818;37.084;2022-07-25T01:57:42;11.13;;;7.32;;
72801;SDS011;61891;55.818;37.084;2022-07-25T02:02:39;10.68;;;7.43;;
72801;SDS011;61891;55.818;37.084;2022-07-25T02:05:06;12.40;;;7.65;;
72801;SDS011;61891;55.818;37.084;2022-07-25T02:07:33;10.60;;;7.35;;
72801;SDS011;61891;55.818;37.084;2022-07-25T02:09:59;9.88;;;7.13;;
72801;SDS011;61891;55.818;37.084;2022-07-25T02:12:25;12.38;;;7.47;;
72801;SDS011;61891;55.818;37.084;2022-07-25T02:14:52;10.65;;;7.07;;
72801;SDS011;61891;55.818;37.084;2022-07-25T02:19:43;11.07;;;7.38;;
72801;SDS011;61891;55.818;37.084;2022-07-25T02:22:09;10.90;;;7.43;;
72801;SDS011;61891;55.818;37.084;2022-07-25T02:24:35;10.43;;;8.20;;
72801;SDS011;61891;55.818;37.084;2022-07-25T02:27:02;10.25;;;8.07;;
72801;SDS011;61891;55.818;37.084;2022-07-25T02:29:28;11.05;;;8.27;;
72801;SDS011;61891;55.818;37.084;2022-07-25T02:31:54;12.48;;;7.72;;
72801;SDS011;61891;55.818;37.084;2022-07-25T02:34:20;8.68;;;7.10;;
72801;SDS011;61891;55.818;37.084;2022-07-25T02:36:46;12.27;;;7.35;;
72801;SDS011;61891;55.818;37.084;2022-07-25T02:41:38;9.40;;;7.10;;
72801;SDS011;61891;55.818;37.084;2022-07-25T02:44:04;11.38;;;7.45;;
72801;SDS011;61891;55.818;37.084;2022-07-25T02:46:30;10.70;;;8.07;;
72801;SDS011;61891;55.818;37.084;2022-07-25T02:48:57;10.55;;;7.50;;
72801;SDS011;61891;55.818;37.084;2022-07-25T02:53:49;11.90;;;7.88;;
72801;SDS011;61891;55.818;37.084;2022-07-25T02:58:41;10.63;;;8.07;;
72801;SDS011;61891;55.818;37.084;2022-07-25T03:03:32;10.85;;;8.18;;
72801;SDS011;61891;55.818;37.084;2022-07-25T03:08:23;16.15;;;8.23;;
72801;SDS011;61891;55.818;37.084;2022-07-25T03:13:15;11.55;;;7.60;;
72801;SDS011;61891;55.818;37.084;2022-07-25T03:15:41;12.57;;;8.00;;
72801;SDS011;61891;55.818;37.084;2022-07-25T03:18:06;12.05;;;8.00;;
72801;SDS011;61891;55.818;37.084;2022-07-25T03:20:32;11.77;;;8.43;;
72801;SDS011;61891;55.818;37.084;2022-07-25T03:22:58;14.10;;;9.30;;
72801;SDS011;61891;55.818;37.084;2022-07-25T03:27:50;12.88;;;8.30;;
72801;SDS011;61891;55.818;37.084;2022-07-25T03:30:15;11.43;;;8.82;;
72801;SDS011;61891;55.818;37.084;2022-07-25T03:32:41;11.15;;;8.32;;
72801;SDS011;61891;55.818;37.084;2022-07-25T03:35:07;12.40;;;8.23;;
72801;SDS011;61891;55.818;37.084;2022-07-25T03:37:33;10.60;;;8.52;;
72801;SDS011;61891;55.818;37.084;2022-07-25T03:42:25;9.07;;;7.60;;
72801;SDS011;61891;55.818;37.084;2022-07-25T03:47:16;10.45;;;7.70;;
72801;SDS011;61891;55.818;37.084;2022-07-25T03:52:08;10.25;;;7.65;;
72801;SDS011;61891;55.818;37.084;2022-07-25T03:56:59;10.65;;;7.10;;
72801;SDS011;61891;55.818;37.084;2022-07-25T04:01:50;11.45;;;7.95;;
72801;SDS011;61891;55.818;37.084;2022-07-25T04:06:44;10.07;;;7.65;;
72801;SDS011;61891;55.818;37.084;2022-07-25T04:09:10;10.93;;;8.45;;
72801;SDS011;61891;55.818;37.084;2022-07-25T04:11:37;10.25;;;8.20;;
72801;SDS011;61891;55.818;37.084;2022-07-25T04:14:03;9.60;;;7.45;;
72801;SDS011;61891;55.818;37.084;2022-07-25T04:16:30;10.75;;;8.10;;
72801;SDS011;61891;55.818;37.084;2022-07-25T04:18:56;13.32;;;8.50;;
72801;SDS011;61891;55.818;37.084;2022-07-25T04:23:48;9.95;;;7.10;;
72801;SDS011;61891;55.818;37.084;2022-07-25T04:26:14;8.20;;;7.13;;
72801;SDS011;61891;55.818;37.084;2022-07-25T04:28:41;8.55;;;7.43;;
72801;SDS011;61891;55.818;37.084;2022-07-25T04:33:35;9.02;;;7.35;;
72801;SDS011;61891;55.818;37.084;2022-07-25T04:36:01;8.52;;;7.03;;
72801;SDS011;61891;55.818;37.084;2022-07-25T04:38:27;8.68;;;6.90;;
72801;SDS011;61891;55.818;37.084;2022-07-25T04:43:19;9.13;;;7.35;;
72801;SDS011;61891;55.818;37.084;2022-07-25T04:48:11;8.38;;;6.75;;
72801;SDS011;61891;55.818;37.084;2022-07-25T04:53:03;9.45;;;7.55;;
72801;SDS011;61891;55.818;37.084;2022-07-25T04:55:29;8.68;;;7.35;;
72801;SDS011;61891;55.818;37.084;2022-07-25T04:57:57;9.30;;;6.97;;
72801;SDS011;61891;55.818;37.084;2022-07-25T05:00:23;8.48;;;7.55;;
72801;SDS011;61891;55.818;37.084;2022-07-25T05:05:16;7.82;;;6.70;;
72801;SDS011;61891;55.818;37.084;2022-07-25T05:07:42;9.02;;;6.60;;
72801;SDS011;61891;55.818;37.084;2022-07-25T05:10:08;7.80;;;6.60;;
72801;SDS011;61891;55.818;37.084;2022-07-25T05:12:36;7.25;;;6.53;;
72801;SDS011;61891;55.818;37.084;2022-07-25T05:15:02;7.35;;;6.03;;
72801;SDS011;61891;55.818;37.084;2022-07-25T05:17:30;9.70;;;7.55;;
72801;SDS011;61891;55.818;37.084;2022-07-25T05:19:56;9.18;;;6.72;;
72801;SDS011;61891;55.818;37.084;2022-07-25T05:22:23;9.52;;;7.50;;
72801;SDS011;61891;55.818;37.084;2022-07-25T05:24:49;10.80;;;7.25;;
72801;SDS011;61891;55.818;37.084;2022-07-25T05:27:15;9.40;;;7.32;;
72801;SDS011;61891;55.818;37.084;2022-07-25T05:29:41;10.20;;;7.57;;
72801;SDS011;61891;55.818;37.084;2022-07-25T05:34:32;9.43;;;7.03;;
72801;SDS011;61891;55.818;37.084;2022-07-25T05:36:59;9.90;;;6.97;;
72801;SDS011;61891;55.818;37.084;2022-07-25T05:39:25;9.90;;;7.05;;
72801;SDS011;61891;55.818;37.084;2022-07-25T05:41:50;9.07;;;7.47;;
72801;SDS011;61891;55.818;37.084;2022-07-25T05:44:16;9.85;;;8.00;;
72801;SDS011;61891;55.818;37.084;2022-07-25T05:46:42;9.23;;;7.38;;
72801;SDS011;61891;55.818;37.084;2022-07-25T05:49:08;9.73;;;7.60;;
72801;SDS011;61891;55.818;37.084;2022-07-25T05:51:34;12.75;;;8.00;;
72801;SDS011;61891;55.818;37.084;2022-07-25T05:53:59;11.88;;;7.13;;
72801;SDS011;61891;55.818;37.084;2022-07-25T05:56:25;8.73;;;6.90;;
72801;SDS011;61891;55.818;37.084;2022-07-25T05:58:51;12.10;;;7.90;;
72801;SDS011;61891;55.818;37.084;2022-07-25T06:01:17;10.55;;;7.57;;
72801;SDS011;61891;55.818;37.084;2022-07-25T06:03:43;10.07;;;8.00;;
72801;SDS011;61891;55.818;37.084;2022-07-25T06:06:09;9.52;;;7.85;;
72801;SDS011;61891;55.818;37.084;2022-07-25T06:08:36;9.40;;;6.95;;
72801;SDS011;61891;55.818;37.084;2022-07-25T06:11:03;8.90;;;7.15;;
72801;SDS011;61891;55.818;37.084;2022-07-25T06:13:32;11.60;;;7.68;;
72801;SDS011;61891;55.818;37.084;2022-07-25T06:15:58;8.30;;;7.00;;
72801;SDS011;61891;55.818;37.084;2022-07-25T06:18:25;8.75;;;7.13;;
72801;SDS011;61891;55.818;37.084;2022-07-25T06:20:51;9.10;;;7.38;;
72801;SDS011;61891;55.818;37.084;2022-07-25T06:23:18;7.30;;;6.60;;
72801;SDS011;61891;55.818;37.084;2022-07-25T06:25:44;11.95;;;7.10;;
72801;SDS011;61891;55.818;37.084;2022-07-25T06:28:11;9.45;;;7.55;;
72801;SDS011;61891;55.818;37.084;2022-07-25T06:30:42;9.07;;;7.00;;
72801;SDS011;61891;55.818;37.084;2022-07-25T06:33:09;9.23;;;7.43;;
72801;SDS011;61891;55.818;37.084;2022-07-25T06:35:36;8.07;;;6.68;;
72801;SDS011;61891;55.818;37.084;2022-07-25T06:38:02;8.75;;;6.60;;
72801;SDS011;61891;55.818;37.084;2022-07-25T06:40:28;8.85;;;7.03;;
72801;SDS011;61891;55.818;37.084;2022-07-25T06:42:54;7.82;;;7.00;;
72801;SDS011;61891;55.818;37.084;2022-07-25T06:45:20;9.48;;;7.45;;
72801;SDS011;61891;55.818;37.084;2022-07-25T06:47:46;8.88;;;7.00;;
72801;SDS011;61891;55.818;37.084;2022-07-25T06:50:13;8.90;;;6.88;;
72801;SDS011;61891;55.818;37.084;2022-07-25T06:52:43;8.05;;;6.57;;
72801;SDS011;61891;55.818;37.084;2022-07-25T06:55:09;6.93;;;6.22;;
72801;SDS011;61891;55.818;37.084;2022-07-25T06:57:36;9.43;;;6.78;;
72801;SDS011;61891;55.818;37.084;2022-07-25T07:00:03;10.25;;;7.18;;
72801;SDS011;61891;55.818;37.084;2022-07-25T07:02:34;6.45;;;5.85;;
72801;SDS011;61891;55.818;37.084;2022-07-25T07:05:00;7.00;;;6.20;;
72801;SDS011;61891;55.818;37.084;2022-07-25T07:07:26;7.15;;;6.28;;
72801;SDS011;61891;55.818;37.084;2022-07-25T07:09:52;7.30;;;6.57;;
72801;SDS011;61891;55.818;37.084;2022-07-25T07:12:18;8.43;;;6.65;;
72801;SDS011;61891;55.818;37.084;2022-07-25T07:14:43;7.78;;;6.43;;
72801;SDS011;61891;55.818;37.084;2022-07-25T07:17:09;6.97;;;4.93;;
72801;SDS011;61891;55.818;37.084;2022-07-25T07:19:35;7.85;;;6.65;;
72801;SDS011;61891;55.818;37.084;2022-07-25T07:22:08;7.10;;;6.35;;
72801;SDS011;61891;55.818;37.084;2022-07-25T07:24:33;8.57;;;6.30;;
72801;SDS011;61891;55.818;37.084;2022-07-25T07:26:59;10.45;;;6.65;;
72801;SDS011;61891;55.818;37.084;2022-07-25T07:29:25;7.55;;;6.70;;
72801;SDS011;61891;55.818;37.084;2022-07-25T07:31:52;7.60;;;6.05;;
72801;SDS011;61891;55.818;37.084;2022-07-25T07:34:18;7.22;;;5.40;;
72801;SDS011;61891;55.818;37.084;2022-07-25T07:36:44;5.97;;;5.30;;
72801;SDS011;61891;55.818;37.084;2022-07-25T07:39:10;6.22;;;5.50;;
72801;SDS011;61891;55.818;37.084;2022-07-25T07:41:36;5.85;;;5.35;;
72801;SDS011;61891;55.818;37.084;2022-07-25T07:44:02;6.07;;;5.10;;
72801;SDS011;61891;55.818;37.084;2022-07-25T07:46:29;7.53;;;5.93;;
72801;SDS011;61891;55.818;37.084;2022-07-25T07:48:55;6.05;;;5.10;;
72801;SDS011;61891;55.818;37.084;2022-07-25T07:51:20;7.30;;;5.25;;
72801;SDS011;61891;55.818;37.084;2022-07-25T07:53:46;8.30;;;5.88;;
72801;SDS011;61891;55.818;37.084;2022-07-25T07:56:30;5.75;;;5.00;;
72801;SDS011;61891;55.818;37.084;2022-07-25T07:58:56;6.03;;;4.40;;
72801;SDS011;61891;55.818;37.084;2022-07-25T08:01:22;5.80;;;4.05;;
72801;SDS011;61891;55.818;37.084;2022-07-25T08:03:49;5.70;;;4.25;;
72801;SDS011;61891;55.818;37.084;2022-07-25T08:06:15;6.00;;;4.28;;
72801;SDS011;61891;55.818;37.084;2022-07-25T08:08:41;8.55;;;4.22;;
72801;SDS011;61891;55.818;37.084;2022-07-25T08:11:07;4.20;;;3.80;;
72801;SDS011;61891;55.818;37.084;2022-07-25T08:13:33;6.45;;;3.70;;
72801;SDS011;61891;55.818;37.084;2022-07-25T08:15:59;4.57;;;4.10;;
72801;SDS011;61891;55.818;37.084;2022-07-25T08:18:27;5.53;;;3.88;;
72801;SDS011;61891;55.818;37.084;2022-07-25T08:20:54;4.57;;;4.00;;
72801;SDS011;61891;55.818;37.084;2022-07-25T08:23:20;4.00;;;3.60;;
72801;SDS011;61891;55.818;37.084;2022-07-25T08:25:47;4.32;;;3.53;;
72801;SDS011;61891;55.818;37.084;2022-07-25T08:28:13;5.50;;;3.90;;
72801;SDS011;61891;55.818;37.084;2022-07-25T08:30:40;5.72;;;4.10;;
72801;SDS011;61891;55.818;37.084;2022-07-25T08:33:07;6.28;;;3.95;;
72801;SDS011;61891;55.818;37.084;2022-07-25T08:35:35;4.40;;;4.03;;
72801;SDS011;61891;55.818;37.084;2022-07-25T08:38:02;7.65;;;4.93;;
72801;SDS011;61891;55.818;37.084;2022-07-25T08:40:29;6.40;;;4.18;;
72801;SDS011;61891;55.818;37.084;2022-07-25T08:42:56;4.35;;;3.20;;
72801;SDS011;61891;55.818;37.084;2022-07-25T08:45:23;5.63;;;4.30;;
72801;SDS011;61891;55.818;37.084;2022-07-25T08:47:51;4.88;;;4.38;;
72801;SDS011;61891;55.818;37.084;2022-07-25T08:50:19;5.93;;;3.70;;
72801;SDS011;61891;55.818;37.084;2022-07-25T08:52:47;4.80;;;3.70;;
72801;SDS011;61891;55.818;37.084;2022-07-25T08:55:17;5.57;;;3.80;;
72801;SDS011;61891;55.818;37.084;2022-07-25T08:57:46;4.00;;;3.63;;
72801;SDS011;61891;55.818;37.084;2022-07-25T09:00:16;3.95;;;3.45;;
72801;SDS011;61891;55.818;37.084;2022-07-25T09:02:50;7.22;;;3.95;;
72801;SDS011;61891;55.818;37.084;2022-07-25T09:05:23;3.88;;;3.50;;
72801;SDS011;61891;55.818;37.084;2022-07-25T09:07:50;7.00;;;3.90;;
72801;SDS011;61891;55.818;37.084;2022-07-25T09:10:17;6.85;;;4.10;;
72801;SDS011;61891;55.818;37.084;2022-07-25T09:12:55;7.45;;;4.13;;
72801;SDS011;61891;55.818;37.084;2022-07-25T09:15:29;4.28;;;3.53;;
72801;SDS011;61891;55.818;37.084;2022-07-25T09:17:58;4.72;;;3.75;;
72801;SDS011;61891;55.818;37.084;2022-07-25T09:20:45;4.28;;;3.80;;
72801;SDS011;61891;55.818;37.084;2022-07-25T09:23:31;4.75;;;3.53;;
72801;SDS011;61891;55.818;37.084;2022-07-25T09:26:07;5.20;;;3.50;;
72801;SDS011;61891;55.818;37.084;2022-07-25T09:29:14;4.00;;;3.65;;
72801;SDS011;61891;55.818;37.084;2022-07-25T09:31:30;3.95;;;3.55;;
72801;SDS011;61891;55.818;37.084;2022-07-25T09:33:57;4.07;;;3.38;;
72801;SDS011;61891;55.818;37.084;2022-07-25T09:36:24;4.65;;;4.00;;
72801;SDS011;61891;55.818;37.084;2022-07-25T09:39:00;6.20;;;3.78;;
72801;SDS011;61891;55.818;37.084;2022-07-25T09:41:35;4.13;;;3.38;;
72801;SDS011;61891;55.818;37.084;2022-07-25T09:44:02;4.85;;;3.50;;
72801;SDS011;61891;55.818;37.084;2022-07-25T09:46:39;7.97;;;3.50;;
72801;SDS011;61891;55.818;37.084;2022-07-25T09:49:05;4.68;;;3.33;;
72801;SDS011;61891;55.818;37.084;2022-07-25T09:51:30;6.57;;;3.65;;
72801;SDS011;61891;55.818;37.084;2022-07-25T09:53:58;5.95;;;4.03;;
72801;SDS011;61891;55.818;37.084;2022-07-25T09:56:24;5.03;;;3.13;;
72801;SDS011;61891;55.818;37.084;2022-07-25T09:58:50;5.43;;;3.20;;
72801;SDS011;61891;55.818;37.084;2022-07-25T10:01:19;4.13;;;3.05;;
72801;SDS011;61891;55.818;37.084;2022-07-25T10:07:00;6.13;;;3.08;;
72801;SDS011;61891;55.818;37.084;2022-07-25T10:09:32;3.30;;;3.00;;
72801;SDS011;61891;55.818;37.084;2022-07-25T10:12:01;4.07;;;3.15;;
72801;SDS011;61891;55.818;37.084;2022-07-25T10:14:32;3.35;;;2.63;;
72801;SDS011;61891;55.818;37.084;2022-07-25T10:16:59;4.45;;;3.42;;
72801;SDS011;61891;55.818;37.084;2022-07-25T10:22:08;3.47;;;3.17;;
72801;SDS011;61891;55.818;37.084;2022-07-25T10:24:35;3.58;;;3.33;;
72801;SDS011;61891;55.818;37.084;2022-07-25T10:27:06;4.07;;;3.67;;
72801;SDS011;61891;55.818;37.084;2022-07-25T10:29:37;3.92;;;3.47;;
72801;SDS011;61891;55.818;37.084;2022-07-25T10:32:05;3.92;;;3.63;;
72801;SDS011;61891;55.818;37.084;2022-07-25T10:34:31;3.78;;;3.38;;
72801;SDS011;61891;55.818;37.084;2022-07-25T10:37:07;3.90;;;3.60;;
72801;SDS011;61891;55.818;37.084;2022-07-25T10:39:38;3.90;;;3.40;;
72801;SDS011;61891;55.818;37.084;2022-07-25T10:42:06;4.18;;;3.75;;
72801;SDS011;61891;55.818;37.084;2022-07-25T10:44:46;4.63;;;3.70;;
72801;SDS011;61891;55.818;37.084;2022-07-25T10:47:14;4.75;;;3.47;;
72801;SDS011;61891;55.818;37.084;2022-07-25T10:49:42;4.00;;;3.67;;
72801;SDS011;61891;55.818;37.084;2022-07-25T10:52:14;3.10;;;2.80;;
72801;SDS011;61891;55.818;37.084;2022-07-25T10:54:51;3.30;;;3.00;;
72801;SDS011;61891;55.818;37.084;2022-07-25T10:57:20;3.40;;;3.10;;
72801;SDS011;61891;55.818;37.084;2022-07-25T10:59:47;3.75;;;3.45;;
72801;SDS011;61891;55.818;37.084;2022-07-25T11:02:13;3.65;;;3.22;;
72801;SDS011;61891;55.818;37.084;2022-07-25T11:04:43;3.42;;;3.10;;
72801;SDS011;61891;55.818;37.084;2022-07-25T11:07:29;4.85;;;3.63;;
72801;SDS011;61891;55.818;37.084;2022-07-25T11:10:01;3.38;;;3.08;;
72801;SDS011;61891;55.818;37.084;2022-07-25T11:12:28;3.50;;;3.20;;
72801;SDS011;61891;55.818;37.084;2022-07-25T11:14:59;4.82;;;3.83;;
72801;SDS011;61891;55.818;37.084;2022-07-25T11:17:26;4.03;;;3.42;;
72801;SDS011;61891;55.818;37.084;2022-07-25T11:19:58;3.97;;;3.17;;
72801;SDS011;61891;55.818;37.084;2022-07-25T11:22:26;3.22;;;3.03;;
72801;SDS011;61891;55.818;37.084;2022-07-25T11:24:53;3.55;;;3.25;;
72801;SDS011;61891;55.818;37.084;2022-07-25T11:27:22;2.85;;;2.65;;
72801;SDS011;61891;55.818;37.084;2022-07-25T11:29:53;3.85;;;3.15;;
72801;SDS011;61891;55.818;37.084;2022-07-25T11:32:46;3.17;;;2.88;;
72801;SDS011;61891;55.818;37.084;2022-07-25T11:35:19;3.10;;;2.80;;
72801;SDS011;61891;55.818;37.084;2022-07-25T11:37:46;3.22;;;2.92;;
72801;SDS011;61891;55.818;37.084;2022-07-25T11:40:14;3.17;;;2.92;;
72801;SDS011;61891;55.818;37.084;2022-07-25T11:42:42;3.40;;;3.10;;
72801;SDS011;61891;55.818;37.084;2022-07-25T11:45:22;3.70;;;3.40;;
72801;SDS011;61891;55.818;37.084;2022-07-25T11:47:49;7.55;;;3.05;;
72801;SDS011;61891;55.818;37.084;2022-07-25T11:50:28;6.28;;;3.80;;
72801;SDS011;61891;55.818;37.084;2022-07-25T11:52:58;3.65;;;3.35;;
72801;SDS011;61891;55.818;37.084;2022-07-25T11:55:35;3.53;;;3.20;;
72801;SDS011;61891;55.818;37.084;2022-07-25T11:58:04;3.28;;;2.97;;
72801;SDS011;61891;55.818;37.084;2022-07-25T12:00:34;4.45;;;3.28;;
72801;SDS011;61891;55.818;37.084;2022-07-25T12:03:11;3.78;;;3.47;;
72801;SDS011;61891;55.818;37.084;2022-07-25T12:05:41;3.60;;;3.15;;
72801;SDS011;61891;55.818;37.084;2022-07-25T12:08:08;3.35;;;3.15;;
72801;SDS011;61891;55.818;37.084;2022-07-25T12:10:42;3.45;;;3.15;;
72801;SDS011;61891;55.818;37.084;2022-07-25T12:13:20;3.58;;;3.38;;
72801;SDS011;61891;55.818;37.084;2022-07-25T12:15:47;3.67;;;3.38;;
72801;SDS011;61891;55.818;37.084;2022-07-25T12:18:13;3.78;;;3.53;;
72801;SDS011;61891;55.818;37.084;2022-07-25T12:20:40;3.85;;;3.65;;
72801;SDS011;61891;55.818;37.084;2022-07-25T12:23:08;3.90;;;3.50;;
72801;SDS011;61891;55.818;37.084;2022-07-25T12:25:36;3.28;;;3.08;;
72801;SDS011;61891;55.818;37.084;2022-07-25T12:28:04;3.25;;;3.05;;
72801;SDS011;61891;55.818;37.084;2022-07-25T12:30:30;3.42;;;3.22;;
72801;SDS011;61891;55.818;37.084;2022-07-25T12:32:57;3.45;;;3.13;;
72801;SDS011;61891;55.818;37.084;2022-07-25T12:35:23;3.47;;;3.25;;
72801;SDS011;61891;55.818;37.084;2022-07-25T12:37:50;3.75;;;3.45;;
72801;SDS011;61891;55.818;37.084;2022-07-25T12:40:16;3.58;;;3.28;;
72801;SDS011;61891;55.818;37.084;2022-07-25T12:42:43;3.78;;;3.47;;
72801;SDS011;61891;55.818;37.084;2022-07-25T12:45:09;4.38;;;3.45;;
72801;SDS011;61891;55.818;37.084;2022-07-25T12:47:36;4.00;;;3.70;;
72801;SDS011;61891;55.818;37.084;2022-07-25T12:50:03;3.63;;;3.30;;
72801;SDS011;61891;55.818;37.084;2022-07-25T12:52:31;3.25;;;2.90;;
72801;SDS011;61891;55.818;37.084;2022-07-25T12:54:57;2.85;;;2.63;;
72801;SDS011;61891;55.818;37.084;2022-07-25T12:57:22;3.78;;;3.42;;
72801;SDS011;61891;55.818;37.084;2022-07-25T12:59:49;3.20;;;2.90;;
72801;SDS011;61891;55.818;37.084;2022-07-25T13:02:15;3.03;;;2.83;;
72801;SDS011;61891;55.818;37.084;2022-07-25T13:04:41;3.70;;;3.15;;
72801;SDS011;61891;55.818;37.084;2022-07-25T13:07:07;3.45;;;3.15;;
72801;SDS011;61891;55.818;37.084;2022-07-25T13:09:33;3.85;;;3.33;;
72801;SDS011;61891;55.818;37.084;2022-07-25T13:11:58;3.88;;;3.45;;
72801;SDS011;61891;55.818;37.084;2022-07-25T13:14:24;3.47;;;3.20;;
72801;SDS011;61891;55.818;37.084;2022-07-25T13:16:50;3.90;;;3.60;;
72801;SDS011;61891;55.818;37.084;2022-07-25T13:19:16;3.58;;;3.38;;
72801;SDS011;61891;55.818;37.084;2022-07-25T13:21:42;3.60;;;3.15;;
72801;SDS011;61891;55.818;37.084;2022-07-25T13:24:09;3.92;;;3.63;;
72801;SDS011;61891;55.818;37.084;2022-07-25T13:26:36;4.03;;;3.72;;
72801;SDS011;61891;55.818;37.084;2022-07-25T13:29:03;4.28;;;3.80;;
72801;SDS011;61891;55.818;37.084;2022-07-25T13:31:36;5.47;;;3.78;;
72801;SDS011;61891;55.818;37.084;2022-07-25T13:34:04;3.20;;;3.00;;
72801;SDS011;61891;55.818;37.084;2022-07-25T13:36:34;3.28;;;2.97;;
72801;SDS011;61891;55.818;37.084;2022-07-25T13:39:01;3.40;;;3.20;;
72801;SDS011;61891;55.818;37.084;2022-07-25T13:41:27;3.92;;;3.33;;
72801;SDS011;61891;55.818;37.084;2022-07-25T13:43:54;3.38;;;3.17;;
72801;SDS011;61891;55.818;37.084;2022-07-25T13:46:20;3.25;;;2.97;;
72801;SDS011;61891;55.818;37.084;2022-07-25T13:48:46;3.78;;;3.38;;
72801;SDS011;61891;55.818;37.084;2022-07-25T13:51:12;3.75;;;3.55;;
72801;SDS011;61891;55.818;37.084;2022-07-25T13:53:37;3.95;;;3.65;;
72801;SDS011;61891;55.818;37.084;2022-07-25T13:56:03;4.60;;;3.40;;
72801;SDS011;61891;55.818;37.084;2022-07-25T13:58:30;4.28;;;3.60;;
72801;SDS011;61891;55.818;37.084;2022-07-25T14:00:55;4.22;;;3.63;;
72801;SDS011;61891;55.818;37.084;2022-07-25T14:03:21;3.70;;;3.45;;
72801;SDS011;61891;55.818;37.084;2022-07-25T14:05:47;3.55;;;3.25;;
72801;SDS011;61891;55.818;37.084;2022-07-25T14:08:13;3.88;;;3.13;;
72801;SDS011;61891;55.818;37.084;2022-07-25T14:10:39;3.65;;;3.35;;
72801;SDS011;61891;55.818;37.084;2022-07-25T14:13:05;3.38;;;3.17;;
72801;SDS011;61891;55.818;37.084;2022-07-25T14:15:31;3.88;;;3.50;;
72801;SDS011;61891;55.818;37.084;2022-07-25T14:17:57;3.15;;;2.95;;
72801;SDS011;61891;55.818;37.084;2022-07-25T14:20:23;3.45;;;3.15;;
72801;SDS011;61891;55.818;37.084;2022-07-25T14:22:49;3.03;;;2.72;;
72801;SDS011;61891;55.818;37.084;2022-07-25T14:25:15;3.60;;;3.33;;
72801;SDS011;61891;55.818;37.084;2022-07-25T14:27:40;3.40;;;3.10;;
72801;SDS011;61891;55.818;37.084;2022-07-25T14:30:07;3.65;;;2.92;;
72801;SDS011;61891;55.818;37.084;2022-07-25T14:32:34;4.20;;;3.42;;
72801;SDS011;61891;55.818;37.084;2022-07-25T14:35:00;3.40;;;3.20;;
72801;SDS011;61891;55.818;37.084;2022-07-25T14:37:29;3.05;;;2.85;;
72801;SDS011;61891;55.818;37.084;2022-07-25T14:39:58;3.92;;;3.13;;
72801;SDS011;61891;55.818;37.084;2022-07-25T14:42:25;4.45;;;3.70;;
72801;SDS011;61891;55.818;37.084;2022-07-25T14:44:52;3.72;;;3.20;;
72801;SDS011;61891;55.818;37.084;2022-07-25T14:47:19;3.65;;;3.40;;
72801;SDS011;61891;55.818;37.084;2022-07-25T14:49:45;5.53;;;3.13;;
72801;SDS011;61891;55.818;37.084;2022-07-25T14:52:12;3.50;;;3.25;;
72801;SDS011;61891;55.818;37.084;2022-07-25T14:54:39;3.95;;;3.65;;
72801;SDS011;61891;55.818;37.084;2022-07-25T14:57:05;3.50;;;3.20;;
72801;SDS011;61891;55.818;37.084;2022-07-25T14:59:31;4.20;;;3.13;;
72801;SDS011;61891;55.818;37.084;2022-07-25T15:01:57;3.22;;;2.92;;
72801;SDS011;61891;55.818;37.084;2022-07-25T15:04:23;3.45;;;3.13;;
72801;SDS011;61891;55.818;37.084;2022-07-25T15:06:50;3.78;;;3.40;;
72801;SDS011;61891;55.818;37.084;2022-07-25T15:09:19;4.20;;;3.10;;
72801;SDS011;61891;55.818;37.084;2022-07-25T15:11:45;4.25;;;3.08;;
72801;SDS011;61891;55.818;37.084;2022-07-25T15:14:11;3.42;;;3.13;;
72801;SDS011;61891;55.818;37.084;2022-07-25T15:16:37;3.55;;;3.25;;
72801;SDS011;61891;55.818;37.084;2022-07-25T15:19:03;3.40;;;3.10;;
72801;SDS011;61891;55.818;37.084;2022-07-25T15:21:32;5.40;;;3.90;;
72801;SDS011;61891;55.818;37.084;2022-07-25T15:23:58;3.63;;;3.00;;
72801;SDS011;61891;55.818;37.084;2022-07-25T15:26:24;4.72;;;3.20;;
72801;SDS011;61891;55.818;37.084;2022-07-25T15:28:50;3.70;;;3.40;;
72801;SDS011;61891;55.818;37.084;2022-07-25T15:31:16;3.88;;;3.30;;
72801;SDS011;61891;55.818;37.084;2022-07-25T15:33:42;4.18;;;3.45;;
72801;SDS011;61891;55.818;37.084;2022-07-25T15:36:08;4.40;;;3.78;;
72801;SDS011;61891;55.818;37.084;2022-07-25T15:38:34;5.05;;;3.58;;
72801;SDS011;61891;55.818;37.084;2022-07-25T15:40:59;4.35;;;3.80;;
72801;SDS011;61891;55.818;37.084;2022-07-25T15:43:25;4.30;;;3.80;;
72801;SDS011;61891;55.818;37.084;2022-07-25T15:45:51;4.25;;;3.85;;
72801;SDS011;61891;55.818;37.084;2022-07-25T15:48:17;5.55;;;3.70;;
72801;SDS011;61891;55.818;37.084;2022-07-25T15:50:44;7.18;;;3.78;;
72801;SDS011;61891;55.818;37.084;2022-07-25T15:53:12;5.78;;;4.88;;